sensor_id;sensor_type;location;lat;lon;timestamp;P1;durP1;ratioP1;P2;durP2;ratioP2
14817;SDS011;7500;57.698;11.986;2023-03-04T00:02:22;5.10;;;1.50;;
14817;SDS011;7500;57.698;11.986;2023-03-04T00:04:49;6.67;;;1.70;;
14817;SDS011;7500;57.698;11.986;2023-03-04T00:07:16;8.77;;;1.80;;
14817;SDS011;7500;57.698;11.986;2023-03-04T00:09:43;12.13;;;1.80;;
14817;SDS011;7500;57.698;11.986;2023-03-04T00:12:11;9.10;;;1.60;;
14817;SDS011;7500;57.698;11.986;2023-03-04T00:14:38;4.70;;;1.60;;
14817;SDS011;7500;57.698;11.986;2023-03-04T00:17:05;6.90;;;1.70;;
14817;SDS011;7500;57.698;11.986;2023-03-04T00:19:33;5.33;;;1.60;;
14817;SDS011;7500;57.698;11.986;2023-03-04T00:22:00;10.57;;;2.20;;
14817;SDS011;7500;57.698;11.986;2023-03-04T00:24:28;9.07;;;1.83;;
14817;SDS011;7500;57.698;11.986;2023-03-04T00:26:55;7.23;;;1.77;;
14817;SDS011;7500;57.698;11.986;2023-03-04T00:29:21;5.33;;;1.90;;
14817;SDS011;7500;57.698;11.986;2023-03-04T00:31:48;5.80;;;1.63;;
14817;SDS011;7500;57.698;11.986;2023-03-04T00:34:15;8.20;;;1.77;;
14817;SDS011;7500;57.698;11.986;2023-03-04T00:36:44;8.03;;;2.20;;
14817;SDS011;7500;57.698;11.986;2023-03-04T00:39:11;4.40;;;1.17;;
14817;SDS011;7500;57.698;11.986;2023-03-04T00:41:38;6.97;;;1.20;;
14817;SDS011;7500;57.698;11.986;2023-03-04T00:44:05;3.23;;;0.80;;
14817;SDS011;7500;57.698;11.986;2023-03-04T00:46:32;4.23;;;1.20;;
14817;SDS011;7500;57.698;11.986;2023-03-04T00:48:59;8.67;;;2.40;;
14817;SDS011;7500;57.698;11.986;2023-03-04T00:51:26;9.87;;;1.63;;
14817;SDS011;7500;57.698;11.986;2023-03-04T00:53:54;5.30;;;1.07;;
14817;SDS011;7500;57.698;11.986;2023-03-04T00:56:21;5.43;;;1.60;;
14817;SDS011;7500;57.698;11.986;2023-03-04T00:58:48;5.53;;;1.13;;
14817;SDS011;7500;57.698;11.986;2023-03-04T01:01:15;5.23;;;1.03;;
14817;SDS011;7500;57.698;11.986;2023-03-04T01:03:42;3.63;;;1.40;;
14817;SDS011;7500;57.698;11.986;2023-03-04T01:06:09;6.00;;;1.10;;
14817;SDS011;7500;57.698;11.986;2023-03-04T01:08:36;6.23;;;1.23;;
14817;SDS011;7500;57.698;11.986;2023-03-04T01:11:05;4.23;;;0.93;;
14817;SDS011;7500;57.698;11.986;2023-03-04T01:13:32;5.37;;;1.00;;
14817;SDS011;7500;57.698;11.986;2023-03-04T01:15:59;5.87;;;1.20;;
14817;SDS011;7500;57.698;11.986;2023-03-04T01:18:27;5.63;;;0.93;;
14817;SDS011;7500;57.698;11.986;2023-03-04T01:20:54;3.33;;;1.30;;
14817;SDS011;7500;57.698;11.986;2023-03-04T01:23:21;5.23;;;1.30;;
14817;SDS011;7500;57.698;11.986;2023-03-04T01:25:48;6.63;;;1.63;;
14817;SDS011;7500;57.698;11.986;2023-03-04T01:28:16;4.17;;;1.23;;
14817;SDS011;7500;57.698;11.986;2023-03-04T01:30:43;3.33;;;1.10;;
14817;SDS011;7500;57.698;11.986;2023-03-04T01:33:10;4.97;;;1.30;;
14817;SDS011;7500;57.698;11.986;2023-03-04T01:35:37;7.57;;;1.20;;
14817;SDS011;7500;57.698;11.986;2023-03-04T01:38:04;7.10;;;1.73;;
14817;SDS011;7500;57.698;11.986;2023-03-04T01:40:31;5.63;;;1.83;;
14817;SDS011;7500;57.698;11.986;2023-03-04T01:42:58;2.00;;;0.73;;
14817;SDS011;7500;57.698;11.986;2023-03-04T01:45:26;4.10;;;1.23;;
14817;SDS011;7500;57.698;11.986;2023-03-04T01:47:54;1.97;;;0.70;;
14817;SDS011;7500;57.698;11.986;2023-03-04T01:50:23;2.97;;;0.50;;
14817;SDS011;7500;57.698;11.986;2023-03-04T01:52:53;0.73;;;0.50;;
14817;SDS011;7500;57.698;11.986;2023-03-04T01:55:21;1.40;;;0.50;;
14817;SDS011;7500;57.698;11.986;2023-03-04T01:57:49;3.87;;;0.80;;
14817;SDS011;7500;57.698;11.986;2023-03-04T02:00:18;1.13;;;0.50;;
14817;SDS011;7500;57.698;11.986;2023-03-04T02:02:50;1.20;;;0.43;;
14817;SDS011;7500;57.698;11.986;2023-03-04T02:05:20;2.10;;;0.60;;
14817;SDS011;7500;57.698;11.986;2023-03-04T02:07:47;0.63;;;0.30;;
14817;SDS011;7500;57.698;11.986;2023-03-04T02:10:15;0.93;;;0.30;;
14817;SDS011;7500;57.698;11.986;2023-03-04T02:12:42;2.33;;;0.50;;
14817;SDS011;7500;57.698;11.986;2023-03-04T02:15:10;1.37;;;0.50;;
14817;SDS011;7500;57.698;11.986;2023-03-04T02:17:37;2.47;;;0.60;;
14817;SDS011;7500;57.698;11.986;2023-03-04T02:20:09;1.60;;;0.53;;
14817;SDS011;7500;57.698;11.986;2023-03-04T02:22:46;2.20;;;0.50;;
14817;SDS011;7500;57.698;11.986;2023-03-04T02:25:20;2.20;;;0.60;;
14817;SDS011;7500;57.698;11.986;2023-03-04T02:27:52;2.60;;;0.50;;
14817;SDS011;7500;57.698;11.986;2023-03-04T02:30:20;1.40;;;0.37;;
14817;SDS011;7500;57.698;11.986;2023-03-04T02:32:49;3.07;;;0.87;;
14817;SDS011;7500;57.698;11.986;2023-03-04T02:35:17;1.63;;;0.90;;
14817;SDS011;7500;57.698;11.986;2023-03-04T02:37:45;6.47;;;1.03;;
14817;SDS011;7500;57.698;11.986;2023-03-04T02:40:13;3.17;;;0.60;;
14817;SDS011;7500;57.698;11.986;2023-03-04T02:42:43;4.23;;;0.83;;
14817;SDS011;7500;57.698;11.986;2023-03-04T02:45:30;1.53;;;0.70;;
14817;SDS011;7500;57.698;11.986;2023-03-04T02:48:01;2.93;;;0.70;;
14817;SDS011;7500;57.698;11.986;2023-03-04T02:50:29;2.20;;;0.50;;
14817;SDS011;7500;57.698;11.986;2023-03-04T02:52:58;2.07;;;0.50;;
14817;SDS011;7500;57.698;11.986;2023-03-04T02:55:25;1.73;;;0.57;;
14817;SDS011;7500;57.698;11.986;2023-03-04T02:57:53;2.73;;;0.60;;
14817;SDS011;7500;57.698;11.986;2023-03-04T03:00:20;2.27;;;0.40;;
14817;SDS011;7500;57.698;11.986;2023-03-04T03:02:49;1.37;;;0.33;;
14817;SDS011;7500;57.698;11.986;2023-03-04T03:05:16;2.87;;;0.40;;
14817;SDS011;7500;57.698;11.986;2023-03-04T03:07:43;4.37;;;0.47;;
14817;SDS011;7500;57.698;11.986;2023-03-04T03:10:10;1.83;;;0.60;;
14817;SDS011;7500;57.698;11.986;2023-03-04T03:12:37;1.53;;;0.53;;
14817;SDS011;7500;57.698;11.986;2023-03-04T03:15:05;0.90;;;0.37;;
14817;SDS011;7500;57.698;11.986;2023-03-04T03:17:32;2.40;;;0.53;;
14817;SDS011;7500;57.698;11.986;2023-03-04T03:20:01;0.43;;;0.30;;
14817;SDS011;7500;57.698;11.986;2023-03-04T03:22:28;0.50;;;0.37;;
14817;SDS011;7500;57.698;11.986;2023-03-04T03:24:55;1.70;;;0.70;;
14817;SDS011;7500;57.698;11.986;2023-03-04T03:27:22;3.03;;;1.00;;
14817;SDS011;7500;57.698;11.986;2023-03-04T03:29:49;3.43;;;0.40;;
14817;SDS011;7500;57.698;11.986;2023-03-04T03:32:16;1.60;;;0.37;;
14817;SDS011;7500;57.698;11.986;2023-03-04T03:34:43;3.57;;;0.70;;
14817;SDS011;7500;57.698;11.986;2023-03-04T03:37:11;2.80;;;0.30;;
14817;SDS011;7500;57.698;11.986;2023-03-04T03:39:38;3.80;;;0.57;;
14817;SDS011;7500;57.698;11.986;2023-03-04T03:42:05;5.87;;;0.53;;
14817;SDS011;7500;57.698;11.986;2023-03-04T03:44:32;2.20;;;0.30;;
14817;SDS011;7500;57.698;11.986;2023-03-04T03:46:59;1.40;;;0.40;;
14817;SDS011;7500;57.698;11.986;2023-03-04T03:49:27;1.60;;;0.20;;
14817;SDS011;7500;57.698;11.986;2023-03-04T03:51:54;1.27;;;0.40;;
14817;SDS011;7500;57.698;11.986;2023-03-04T03:54:22;2.03;;;0.30;;
14817;SDS011;7500;57.698;11.986;2023-03-04T03:56:49;3.13;;;0.37;;
14817;SDS011;7500;57.698;11.986;2023-03-04T03:59:16;1.50;;;0.30;;
14817;SDS011;7500;57.698;11.986;2023-03-04T04:01:43;2.60;;;0.40;;
14817;SDS011;7500;57.698;11.986;2023-03-04T04:04:10;4.20;;;0.60;;
14817;SDS011;7500;57.698;11.986;2023-03-04T04:06:37;3.10;;;0.40;;
14817;SDS011;7500;57.698;11.986;2023-03-04T04:09:04;1.40;;;0.60;;
14817;SDS011;7500;57.698;11.986;2023-03-04T04:11:32;0.50;;;0.30;;
14817;SDS011;7500;57.698;11.986;2023-03-04T04:13:59;1.13;;;0.30;;
14817;SDS011;7500;57.698;11.986;2023-03-04T04:16:26;2.97;;;0.30;;
14817;SDS011;7500;57.698;11.986;2023-03-04T04:18:53;1.47;;;0.40;;
14817;SDS011;7500;57.698;11.986;2023-03-04T04:21:20;1.77;;;0.30;;
14817;SDS011;7500;57.698;11.986;2023-03-04T04:23:47;1.93;;;0.70;;
14817;SDS011;7500;57.698;11.986;2023-03-04T04:26:14;1.17;;;0.23;;
14817;SDS011;7500;57.698;11.986;2023-03-04T04:28:42;3.13;;;0.50;;
14817;SDS011;7500;57.698;11.986;2023-03-04T04:31:09;6.43;;;0.60;;
14817;SDS011;7500;57.698;11.986;2023-03-04T04:33:36;4.10;;;0.30;;
14817;SDS011;7500;57.698;11.986;2023-03-04T04:36:03;1.43;;;0.50;;
14817;SDS011;7500;57.698;11.986;2023-03-04T04:38:31;0.80;;;0.30;;
14817;SDS011;7500;57.698;11.986;2023-03-04T04:40:58;11.97;;;0.40;;
14817;SDS011;7500;57.698;11.986;2023-03-04T04:43:25;2.57;;;0.40;;
14817;SDS011;7500;57.698;11.986;2023-03-04T04:45:53;1.63;;;0.40;;
14817;SDS011;7500;57.698;11.986;2023-03-04T04:48:20;1.43;;;0.30;;
14817;SDS011;7500;57.698;11.986;2023-03-04T04:50:52;3.33;;;0.50;;
14817;SDS011;7500;57.698;11.986;2023-03-04T04:53:20;11.30;;;1.20;;
14817;SDS011;7500;57.698;11.986;2023-03-04T04:55:47;3.90;;;0.67;;
14817;SDS011;7500;57.698;11.986;2023-03-04T04:58:14;4.40;;;0.40;;
14817;SDS011;7500;57.698;11.986;2023-03-04T05:00:41;4.03;;;0.40;;
14817;SDS011;7500;57.698;11.986;2023-03-04T05:03:09;2.23;;;0.53;;
14817;SDS011;7500;57.698;11.986;2023-03-04T05:05:36;0.80;;;0.40;;
14817;SDS011;7500;57.698;11.986;2023-03-04T05:08:03;2.17;;;0.43;;
14817;SDS011;7500;57.698;11.986;2023-03-04T05:10:31;3.40;;;0.40;;
14817;SDS011;7500;57.698;11.986;2023-03-04T05:12:57;4.10;;;0.57;;
14817;SDS011;7500;57.698;11.986;2023-03-04T05:15:24;1.87;;;0.43;;
14817;SDS011;7500;57.698;11.986;2023-03-04T05:17:51;2.73;;;0.30;;
14817;SDS011;7500;57.698;11.986;2023-03-04T05:20:20;1.50;;;0.37;;
14817;SDS011;7500;57.698;11.986;2023-03-04T05:22:47;0.90;;;0.20;;
14817;SDS011;7500;57.698;11.986;2023-03-04T05:25:14;2.90;;;0.43;;
14817;SDS011;7500;57.698;11.986;2023-03-04T05:27:41;3.90;;;0.40;;
14817;SDS011;7500;57.698;11.986;2023-03-04T05:30:09;2.67;;;0.57;;
14817;SDS011;7500;57.698;11.986;2023-03-04T05:32:37;2.13;;;0.40;;
14817;SDS011;7500;57.698;11.986;2023-03-04T05:35:04;6.93;;;1.00;;
14817;SDS011;7500;57.698;11.986;2023-03-04T05:37:33;6.33;;;0.57;;
14817;SDS011;7500;57.698;11.986;2023-03-04T05:40:00;7.20;;;0.87;;
14817;SDS011;7500;57.698;11.986;2023-03-04T05:42:28;2.83;;;0.50;;
14817;SDS011;7500;57.698;11.986;2023-03-04T05:44:55;3.63;;;0.60;;
14817;SDS011;7500;57.698;11.986;2023-03-04T05:47:22;2.43;;;0.53;;
14817;SDS011;7500;57.698;11.986;2023-03-04T05:49:49;0.63;;;0.17;;
14817;SDS011;7500;57.698;11.986;2023-03-04T05:52:16;1.33;;;0.50;;
14817;SDS011;7500;57.698;11.986;2023-03-04T05:54:44;1.00;;;0.30;;
14817;SDS011;7500;57.698;11.986;2023-03-04T05:57:11;2.63;;;0.70;;
14817;SDS011;7500;57.698;11.986;2023-03-04T05:59:38;4.87;;;0.80;;
14817;SDS011;7500;57.698;11.986;2023-03-04T06:02:05;1.87;;;0.53;;
14817;SDS011;7500;57.698;11.986;2023-03-04T06:04:32;4.03;;;0.70;;
14817;SDS011;7500;57.698;11.986;2023-03-04T06:06:59;6.20;;;0.50;;
14817;SDS011;7500;57.698;11.986;2023-03-04T06:09:26;2.77;;;0.57;;
14817;SDS011;7500;57.698;11.986;2023-03-04T06:11:54;2.83;;;0.43;;
14817;SDS011;7500;57.698;11.986;2023-03-04T06:14:21;3.83;;;0.40;;
14817;SDS011;7500;57.698;11.986;2023-03-04T06:16:48;6.37;;;0.57;;
14817;SDS011;7500;57.698;11.986;2023-03-04T06:19:15;5.37;;;0.80;;
14817;SDS011;7500;57.698;11.986;2023-03-04T06:21:42;3.57;;;0.70;;
14817;SDS011;7500;57.698;11.986;2023-03-04T06:24:09;5.53;;;0.63;;
14817;SDS011;7500;57.698;11.986;2023-03-04T06:26:36;3.77;;;0.60;;
14817;SDS011;7500;57.698;11.986;2023-03-04T06:29:04;3.50;;;0.60;;
14817;SDS011;7500;57.698;11.986;2023-03-04T06:31:31;15.43;;;1.23;;
14817;SDS011;7500;57.698;11.986;2023-03-04T06:33:58;2.70;;;0.30;;
14817;SDS011;7500;57.698;11.986;2023-03-04T06:36:25;4.07;;;0.53;;
14817;SDS011;7500;57.698;11.986;2023-03-04T06:38:52;1.83;;;0.80;;
14817;SDS011;7500;57.698;11.986;2023-03-04T06:41:19;3.63;;;0.40;;
14817;SDS011;7500;57.698;11.986;2023-03-04T06:43:46;2.73;;;0.30;;
14817;SDS011;7500;57.698;11.986;2023-03-04T06:46:14;3.20;;;0.37;;
14817;SDS011;7500;57.698;11.986;2023-03-04T06:48:41;1.10;;;0.30;;
14817;SDS011;7500;57.698;11.986;2023-03-04T06:51:09;1.27;;;0.40;;
14817;SDS011;7500;57.698;11.986;2023-03-04T06:53:37;3.17;;;0.30;;
14817;SDS011;7500;57.698;11.986;2023-03-04T06:56:04;1.57;;;0.73;;
14817;SDS011;7500;57.698;11.986;2023-03-04T06:58:33;6.27;;;0.60;;
14817;SDS011;7500;57.698;11.986;2023-03-04T07:01:08;6.10;;;0.50;;
14817;SDS011;7500;57.698;11.986;2023-03-04T07:03:40;7.67;;;0.90;;
14817;SDS011;7500;57.698;11.986;2023-03-04T07:06:08;6.47;;;0.70;;
14817;SDS011;7500;57.698;11.986;2023-03-04T07:08:36;7.30;;;0.77;;
14817;SDS011;7500;57.698;11.986;2023-03-04T07:11:03;2.67;;;0.60;;
14817;SDS011;7500;57.698;11.986;2023-03-04T07:13:30;7.93;;;0.80;;
14817;SDS011;7500;57.698;11.986;2023-03-04T07:15:59;5.07;;;0.63;;
14817;SDS011;7500;57.698;11.986;2023-03-04T07:18:26;20.93;;;2.03;;
14817;SDS011;7500;57.698;11.986;2023-03-04T07:20:55;5.13;;;1.50;;
14817;SDS011;7500;57.698;11.986;2023-03-04T07:23:22;2.23;;;0.83;;
14817;SDS011;7500;57.698;11.986;2023-03-04T07:25:49;6.77;;;0.80;;
14817;SDS011;7500;57.698;11.986;2023-03-04T07:28:16;5.67;;;0.57;;
14817;SDS011;7500;57.698;11.986;2023-03-04T07:30:43;3.87;;;0.73;;
14817;SDS011;7500;57.698;11.986;2023-03-04T07:33:11;3.80;;;0.27;;
14817;SDS011;7500;57.698;11.986;2023-03-04T07:35:39;4.43;;;0.77;;
14817;SDS011;7500;57.698;11.986;2023-03-04T07:38:07;4.90;;;0.33;;
14817;SDS011;7500;57.698;11.986;2023-03-04T07:40:34;3.20;;;0.43;;
14817;SDS011;7500;57.698;11.986;2023-03-04T07:43:01;4.03;;;0.60;;
14817;SDS011;7500;57.698;11.986;2023-03-04T07:45:28;3.87;;;0.73;;
14817;SDS011;7500;57.698;11.986;2023-03-04T07:47:56;4.90;;;0.70;;
14817;SDS011;7500;57.698;11.986;2023-03-04T07:50:23;3.33;;;0.60;;
14817;SDS011;7500;57.698;11.986;2023-03-04T07:52:50;5.63;;;0.53;;
14817;SDS011;7500;57.698;11.986;2023-03-04T07:55:19;6.60;;;0.80;;
14817;SDS011;7500;57.698;11.986;2023-03-04T07:57:46;1.50;;;0.10;;
14817;SDS011;7500;57.698;11.986;2023-03-04T08:00:14;5.17;;;0.50;;
14817;SDS011;7500;57.698;11.986;2023-03-04T08:02:42;4.23;;;0.87;;
14817;SDS011;7500;57.698;11.986;2023-03-04T08:05:09;3.70;;;0.40;;
14817;SDS011;7500;57.698;11.986;2023-03-04T08:07:36;8.73;;;0.80;;
14817;SDS011;7500;57.698;11.986;2023-03-04T08:10:04;6.33;;;0.40;;
14817;SDS011;7500;57.698;11.986;2023-03-04T08:12:33;6.63;;;0.97;;
14817;SDS011;7500;57.698;11.986;2023-03-04T08:15:01;15.63;;;1.60;;
14817;SDS011;7500;57.698;11.986;2023-03-04T08:17:28;0.77;;;0.13;;
14817;SDS011;7500;57.698;11.986;2023-03-04T08:19:55;9.67;;;0.67;;
14817;SDS011;7500;57.698;11.986;2023-03-04T08:22:22;3.50;;;0.45;;
14817;SDS011;7500;57.698;11.986;2023-03-04T08:24:49;7.40;;;0.70;;
14817;SDS011;7500;57.698;11.986;2023-03-04T08:27:16;1.93;;;0.60;;
14817;SDS011;7500;57.698;11.986;2023-03-04T08:29:44;10.23;;;1.07;;
14817;SDS011;7500;57.698;11.986;2023-03-04T08:32:11;2.00;;;0.30;;
14817;SDS011;7500;57.698;11.986;2023-03-04T08:34:38;0.10;;;0.10;;
14817;SDS011;7500;57.698;11.986;2023-03-04T08:37:06;5.80;;;0.53;;
14817;SDS011;7500;57.698;11.986;2023-03-04T08:39:33;2.07;;;0.10;;
14817;SDS011;7500;57.698;11.986;2023-03-04T08:42:00;3.20;;;0.30;;
14817;SDS011;7500;57.698;11.986;2023-03-04T08:44:27;5.97;;;0.60;;
14817;SDS011;7500;57.698;11.986;2023-03-04T08:46:56;3.67;;;0.43;;
14817;SDS011;7500;57.698;11.986;2023-03-04T08:49:23;7.87;;;0.53;;
14817;SDS011;7500;57.698;11.986;2023-03-04T08:51:51;1.90;;;0.30;;
14817;SDS011;7500;57.698;11.986;2023-03-04T08:54:18;0.87;;;0.63;;
14817;SDS011;7500;57.698;11.986;2023-03-04T08:56:45;4.17;;;0.50;;
14817;SDS011;7500;57.698;11.986;2023-03-04T08:59:12;5.90;;;0.70;;
14817;SDS011;7500;57.698;11.986;2023-03-04T09:01:39;1.53;;;0.70;;
14817;SDS011;7500;57.698;11.986;2023-03-04T09:04:07;5.63;;;0.90;;
14817;SDS011;7500;57.698;11.986;2023-03-04T09:06:34;0.93;;;0.40;;
14817;SDS011;7500;57.698;11.986;2023-03-04T09:09:01;4.93;;;0.50;;
14817;SDS011;7500;57.698;11.986;2023-03-04T09:11:28;8.10;;;0.37;;
14817;SDS011;7500;57.698;11.986;2023-03-04T09:13:55;3.20;;;0.60;;
14817;SDS011;7500;57.698;11.986;2023-03-04T09:16:22;1.60;;;0.20;;
14817;SDS011;7500;57.698;11.986;2023-03-04T09:18:49;2.97;;;0.60;;
14817;SDS011;7500;57.698;11.986;2023-03-04T09:21:18;2.37;;;0.50;;
14817;SDS011;7500;57.698;11.986;2023-03-04T09:23:45;3.50;;;0.30;;
14817;SDS011;7500;57.698;11.986;2023-03-04T09:26:12;2.13;;;0.43;;
14817;SDS011;7500;57.698;11.986;2023-03-04T09:28:41;0.83;;;0.37;;
14817;SDS011;7500;57.698;11.986;2023-03-04T09:31:11;2.63;;;0.23;;
14817;SDS011;7500;57.698;11.986;2023-03-04T09:33:39;4.03;;;0.50;;
14817;SDS011;7500;57.698;11.986;2023-03-04T09:36:07;3.33;;;0.77;;
14817;SDS011;7500;57.698;11.986;2023-03-04T09:38:37;2.27;;;0.40;;
14817;SDS011;7500;57.698;11.986;2023-03-04T09:41:06;3.17;;;0.40;;
14817;SDS011;7500;57.698;11.986;2023-03-04T09:43:34;2.67;;;0.30;;
14817;SDS011;7500;57.698;11.986;2023-03-04T09:46:03;7.47;;;0.43;;
14817;SDS011;7500;57.698;11.986;2023-03-04T09:48:37;2.10;;;0.20;;
14817;SDS011;7500;57.698;11.986;2023-03-04T09:51:13;0.23;;;0.10;;
14817;SDS011;7500;57.698;11.986;2023-03-04T09:53:48;3.37;;;0.90;;
14817;SDS011;7500;57.698;11.986;2023-03-04T09:56:28;4.00;;;0.37;;
14817;SDS011;7500;57.698;11.986;2023-03-04T09:58:59;0.77;;;0.23;;
14817;SDS011;7500;57.698;11.986;2023-03-04T10:01:36;5.37;;;0.40;;
14817;SDS011;7500;57.698;11.986;2023-03-04T10:04:11;0.47;;;0.40;;
14817;SDS011;7500;57.698;11.986;2023-03-04T10:06:42;9.13;;;0.80;;
14817;SDS011;7500;57.698;11.986;2023-03-04T10:09:20;0.83;;;0.43;;
14817;SDS011;7500;57.698;11.986;2023-03-04T10:11:53;1.10;;;0.40;;
14817;SDS011;7500;57.698;11.986;2023-03-04T10:14:36;1.90;;;0.20;;
14817;SDS011;7500;57.698;11.986;2023-03-04T10:17:08;4.57;;;0.57;;
14817;SDS011;7500;57.698;11.986;2023-03-04T10:19:47;3.10;;;0.50;;
14817;SDS011;7500;57.698;11.986;2023-03-04T10:22:22;1.43;;;0.50;;
14817;SDS011;7500;57.698;11.986;2023-03-04T10:24:58;2.93;;;0.40;;
14817;SDS011;7500;57.698;11.986;2023-03-04T10:27:33;5.83;;;0.30;;
14817;SDS011;7500;57.698;11.986;2023-03-04T10:30:00;2.90;;;0.40;;
14817;SDS011;7500;57.698;11.986;2023-03-04T10:32:27;0.97;;;0.20;;
14817;SDS011;7500;57.698;11.986;2023-03-04T10:34:54;2.93;;;0.53;;
14817;SDS011;7500;57.698;11.986;2023-03-04T10:37:21;2.97;;;0.40;;
14817;SDS011;7500;57.698;11.986;2023-03-04T10:39:48;6.97;;;0.80;;
14817;SDS011;7500;57.698;11.986;2023-03-04T10:42:26;3.10;;;0.40;;
14817;SDS011;7500;57.698;11.986;2023-03-04T10:45:01;3.37;;;0.37;;
14817;SDS011;7500;57.698;11.986;2023-03-04T10:47:28;2.17;;;0.70;;
14817;SDS011;7500;57.698;11.986;2023-03-04T10:49:58;6.30;;;0.60;;
14817;SDS011;7500;57.698;11.986;2023-03-04T10:52:27;1.90;;;0.40;;
14817;SDS011;7500;57.698;11.986;2023-03-04T10:54:56;3.60;;;0.50;;
14817;SDS011;7500;57.698;11.986;2023-03-04T10:57:30;3.53;;;0.37;;
14817;SDS011;7500;57.698;11.986;2023-03-04T11:00:00;1.40;;;0.40;;
14817;SDS011;7500;57.698;11.986;2023-03-04T11:02:28;1.13;;;0.50;;
14817;SDS011;7500;57.698;11.986;2023-03-04T11:05:01;3.37;;;0.50;;
14817;SDS011;7500;57.698;11.986;2023-03-04T11:07:35;10.07;;;0.90;;
14817;SDS011;7500;57.698;11.986;2023-03-04T11:10:08;2.27;;;0.70;;
14817;SDS011;7500;57.698;11.986;2023-03-04T11:12:41;8.07;;;0.90;;
14817;SDS011;7500;57.698;11.986;2023-03-04T11:15:18;9.03;;;1.10;;
14817;SDS011;7500;57.698;11.986;2023-03-04T11:17:49;5.63;;;0.63;;
14817;SDS011;7500;57.698;11.986;2023-03-04T11:20:24;4.23;;;0.70;;
14817;SDS011;7500;57.698;11.986;2023-03-04T11:22:54;5.57;;;0.67;;
14817;SDS011;7500;57.698;11.986;2023-03-04T11:25:26;3.57;;;0.97;;
14817;SDS011;7500;57.698;11.986;2023-03-04T11:27:58;1.00;;;0.40;;
14817;SDS011;7500;57.698;11.986;2023-03-04T11:30:35;0.90;;;0.60;;
14817;SDS011;7500;57.698;11.986;2023-03-04T11:33:18;1.47;;;0.33;;
14817;SDS011;7500;57.698;11.986;2023-03-04T11:35:56;1.50;;;0.50;;
14817;SDS011;7500;57.698;11.986;2023-03-04T11:38:35;1.57;;;0.80;;
14817;SDS011;7500;57.698;11.986;2023-03-04T11:41:07;3.97;;;0.60;;
14817;SDS011;7500;57.698;11.986;2023-03-04T11:43:38;4.43;;;0.60;;
14817;SDS011;7500;57.698;11.986;2023-03-04T11:49:19;1.80;;;0.40;;
14817;SDS011;7500;57.698;11.986;2023-03-04T11:52:18;5.60;;;0.53;;
14817;SDS011;7500;57.698;11.986;2023-03-04T11:55:00;2.50;;;0.67;;
14817;SDS011;7500;57.698;11.986;2023-03-04T11:57:52;1.90;;;0.40;;
14817;SDS011;7500;57.698;11.986;2023-03-04T12:00:30;2.73;;;0.40;;
14817;SDS011;7500;57.698;11.986;2023-03-04T12:06:08;5.03;;;0.93;;
14817;SDS011;7500;57.698;11.986;2023-03-04T12:11:37;7.33;;;0.83;;
14817;SDS011;7500;57.698;11.986;2023-03-04T12:14:22;3.47;;;0.40;;
14817;SDS011;7500;57.698;11.986;2023-03-04T12:17:01;0.40;;;0.17;;
14817;SDS011;7500;57.698;11.986;2023-03-04T12:19:42;1.70;;;0.10;;
14817;SDS011;7500;57.698;11.986;2023-03-04T12:22:29;1.03;;;0.17;;
14817;SDS011;7500;57.698;11.986;2023-03-04T12:25:23;1.53;;;0.40;;
14817;SDS011;7500;57.698;11.986;2023-03-04T12:28:24;2.63;;;0.30;;
14817;SDS011;7500;57.698;11.986;2023-03-04T12:31:12;3.20;;;0.50;;
14817;SDS011;7500;57.698;11.986;2023-03-04T12:33:58;1.60;;;0.57;;
14817;SDS011;7500;57.698;11.986;2023-03-04T12:36:44;2.97;;;0.40;;
14817;SDS011;7500;57.698;11.986;2023-03-04T12:39:24;1.90;;;0.40;;
14817;SDS011;7500;57.698;11.986;2023-03-04T12:41:58;2.77;;;0.50;;
14817;SDS011;7500;57.698;11.986;2023-03-04T12:44:32;4.17;;;1.10;;
14817;SDS011;7500;57.698;11.986;2023-03-04T12:47:13;4.67;;;2.10;;
14817;SDS011;7500;57.698;11.986;2023-03-04T12:49:59;2.77;;;1.10;;
14817;SDS011;7500;57.698;11.986;2023-03-04T12:52:43;4.00;;;0.60;;
14817;SDS011;7500;57.698;11.986;2023-03-04T12:55:21;1.63;;;0.20;;
14817;SDS011;7500;57.698;11.986;2023-03-04T12:57:55;1.13;;;0.47;;
14817;SDS011;7500;57.698;11.986;2023-03-04T13:00:26;2.03;;;0.90;;
14817;SDS011;7500;57.698;11.986;2023-03-04T13:03:05;2.07;;;0.60;;
14817;SDS011;7500;57.698;11.986;2023-03-04T13:05:52;4.73;;;0.60;;
14817;SDS011;7500;57.698;11.986;2023-03-04T13:08:42;3.23;;;0.60;;
14817;SDS011;7500;57.698;11.986;2023-03-04T13:11:39;0.50;;;0.40;;
14817;SDS011;7500;57.698;11.986;2023-03-04T13:20:20;4.83;;;0.70;;
14817;SDS011;7500;57.698;11.986;2023-03-04T13:22:52;2.63;;;0.53;;
14817;SDS011;7500;57.698;11.986;2023-03-04T13:25:31;2.83;;;0.60;;
14817;SDS011;7500;57.698;11.986;2023-03-04T13:33:43;7.53;;;0.53;;
14817;SDS011;7500;57.698;11.986;2023-03-04T13:39:27;4.90;;;0.80;;
14817;SDS011;7500;57.698;11.986;2023-03-04T13:41:59;4.50;;;0.80;;
14817;SDS011;7500;57.698;11.986;2023-03-04T13:44:31;2.93;;;0.60;;
14817;SDS011;7500;57.698;11.986;2023-03-04T13:47:29;8.57;;;1.30;;
14817;SDS011;7500;57.698;11.986;2023-03-04T13:52:59;5.03;;;1.03;;
14817;SDS011;7500;57.698;11.986;2023-03-04T13:55:59;7.50;;;1.33;;
14817;SDS011;7500;57.698;11.986;2023-03-04T13:58:30;6.67;;;1.03;;
14817;SDS011;7500;57.698;11.986;2023-03-04T14:00:59;5.33;;;1.30;;
14817;SDS011;7500;57.698;11.986;2023-03-04T14:03:26;1.53;;;1.00;;
14817;SDS011;7500;57.698;11.986;2023-03-04T14:06:17;5.30;;;0.80;;
14817;SDS011;7500;57.698;11.986;2023-03-04T14:08:46;4.73;;;0.70;;
14817;SDS011;7500;57.698;11.986;2023-03-04T14:11:17;5.60;;;1.10;;
14817;SDS011;7500;57.698;11.986;2023-03-04T14:13:49;3.00;;;0.63;;
14817;SDS011;7500;57.698;11.986;2023-03-04T14:16:18;5.17;;;0.50;;
14817;SDS011;7500;57.698;11.986;2023-03-04T14:18:55;5.60;;;0.80;;
14817;SDS011;7500;57.698;11.986;2023-03-04T14:21:23;12.57;;;1.07;;
14817;SDS011;7500;57.698;11.986;2023-03-04T14:23:58;1.67;;;0.70;;
14817;SDS011;7500;57.698;11.986;2023-03-04T14:26:29;3.73;;;0.60;;
14817;SDS011;7500;57.698;11.986;2023-03-04T14:28:57;5.63;;;1.13;;
14817;SDS011;7500;57.698;11.986;2023-03-04T14:31:27;4.93;;;0.77;;
14817;SDS011;7500;57.698;11.986;2023-03-04T14:33:56;3.73;;;1.00;;
14817;SDS011;7500;57.698;11.986;2023-03-04T14:36:27;2.37;;;0.50;;
14817;SDS011;7500;57.698;11.986;2023-03-04T14:38:57;8.67;;;1.33;;
14817;SDS011;7500;57.698;11.986;2023-03-04T14:41:27;4.23;;;0.60;;
14817;SDS011;7500;57.698;11.986;2023-03-04T14:44:00;5.23;;;1.00;;
14817;SDS011;7500;57.698;11.986;2023-03-04T14:46:33;3.00;;;0.73;;
14817;SDS011;7500;57.698;11.986;2023-03-04T14:49:04;1.90;;;0.80;;
14817;SDS011;7500;57.698;11.986;2023-03-04T14:51:40;5.33;;;0.63;;
14817;SDS011;7500;57.698;11.986;2023-03-04T14:57:00;2.23;;;1.07;;
14817;SDS011;7500;57.698;11.986;2023-03-04T14:59:45;3.63;;;0.70;;
14817;SDS011;7500;57.698;11.986;2023-03-04T15:02:15;4.03;;;0.77;;
14817;SDS011;7500;57.698;11.986;2023-03-04T15:04:45;4.20;;;0.73;;
14817;SDS011;7500;57.698;11.986;2023-03-04T15:07:14;5.90;;;0.80;;
14817;SDS011;7500;57.698;11.986;2023-03-04T15:09:48;2.70;;;1.03;;
14817;SDS011;7500;57.698;11.986;2023-03-04T15:12:22;1.67;;;0.40;;
14817;SDS011;7500;57.698;11.986;2023-03-04T15:14:54;6.80;;;1.17;;
14817;SDS011;7500;57.698;11.986;2023-03-04T15:17:30;3.03;;;0.57;;
14817;SDS011;7500;57.698;11.986;2023-03-04T15:22:57;2.97;;;0.90;;
14817;SDS011;7500;57.698;11.986;2023-03-04T15:25:26;1.43;;;0.47;;
14817;SDS011;7500;57.698;11.986;2023-03-04T15:27:56;3.77;;;0.60;;
14817;SDS011;7500;57.698;11.986;2023-03-04T15:30:24;1.50;;;0.90;;
14817;SDS011;7500;57.698;11.986;2023-03-04T15:32:53;2.00;;;0.83;;
14817;SDS011;7500;57.698;11.986;2023-03-04T15:35:21;7.27;;;1.20;;
14817;SDS011;7500;57.698;11.986;2023-03-04T15:37:50;10.17;;;2.07;;
14817;SDS011;7500;57.698;11.986;2023-03-04T15:40:22;1.33;;;0.70;;